sensor_id;sensor_type;location;lat;lon;timestamp;temperature;humidity
54796;DHT22;40693;43.884;20.340;2023-09-30T00:02:12;410.50;2355.20
54796;DHT22;40693;43.884;20.340;2023-09-30T00:04:38;410.50;2355.20
54796;DHT22;40693;43.884;20.340;2023-09-30T00:07:04;410.50;2355.20
54796;DHT22;40693;43.884;20.340;2023-09-30T00:09:30;410.50;2355.20
54796;DHT22;40693;43.884;20.340;2023-09-30T00:11:56;410.50;2355.20
54796;DHT22;40693;43.884;20.340;2023-09-30T00:14:22;410.50;2355.20
54796;DHT22;40693;43.884;20.340;2023-09-30T00:16:48;410.50;2355.20
54796;DHT22;40693;43.884;20.340;2023-09-30T00:19:14;435.20;2355.20
54796;DHT22;40693;43.884;20.340;2023-09-30T00:21:40;410.50;2355.20
54796;DHT22;40693;43.884;20.340;2023-09-30T00:24:06;410.50;2355.20
54796;DHT22;40693;43.884;20.340;2023-09-30T00:26:32;410.50;2355.20
54796;DHT22;40693;43.884;20.340;2023-09-30T00:28:57;410.50;2355.20
54796;DHT22;40693;43.884;20.340;2023-09-30T00:31:23;410.40;2355.20
54796;DHT22;40693;43.884;20.340;2023-09-30T00:33:49;410.20;2355.20
54796;DHT22;40693;43.884;20.340;2023-09-30T00:36:15;410.00;2355.20
54796;DHT22;40693;43.884;20.340;2023-09-30T00:38:42;410.00;2355.20
54796;DHT22;40693;43.884;20.340;2023-09-30T00:41:07;409.90;2355.20
54796;DHT22;40693;43.884;20.340;2023-09-30T00:43:33;409.80;2355.20
54796;DHT22;40693;43.884;20.340;2023-09-30T00:46:22;409.70;2355.20
54796;DHT22;40693;43.884;20.340;2023-09-30T00:48:51;409.80;2355.20
54796;DHT22;40693;43.884;20.340;2023-09-30T00:51:17;409.80;2355.20
54796;DHT22;40693;43.884;20.340;2023-09-30T00:53:43;409.70;2355.20
54796;DHT22;40693;43.884;20.340;2023-09-30T00:56:10;409.70;2355.20
54796;DHT22;40693;43.884;20.340;2023-09-30T00:58:38;409.70;2355.20
54796;DHT22;40693;43.884;20.340;2023-09-30T01:01:04;409.80;2355.20
54796;DHT22;40693;43.884;20.340;2023-09-30T01:03:30;409.80;2355.20
54796;DHT22;40693;43.884;20.340;2023-09-30T01:05:56;409.80;2355.20
54796;DHT22;40693;43.884;20.340;2023-09-30T01:08:22;409.90;2355.20
54796;DHT22;40693;43.884;20.340;2023-09-30T01:10:48;409.90;2355.20
54796;DHT22;40693;43.884;20.340;2023-09-30T01:13:14;409.80;2355.20
54796;DHT22;40693;43.884;20.340;2023-09-30T01:15:39;409.80;2355.20
54796;DHT22;40693;43.884;20.340;2023-09-30T01:18:05;409.80;2355.20
54796;DHT22;40693;43.884;20.340;2023-09-30T01:20:31;409.80;2355.20
54796;DHT22;40693;43.884;20.340;2023-09-30T01:22:57;410.00;2355.20
54796;DHT22;40693;43.884;20.340;2023-09-30T01:25:27;409.90;2355.20
54796;DHT22;40693;43.884;20.340;2023-09-30T01:27:53;409.90;2355.20
54796;DHT22;40693;43.884;20.340;2023-09-30T01:30:19;409.90;2355.20
54796;DHT22;40693;43.884;20.340;2023-09-30T01:32:47;409.80;2355.20
54796;DHT22;40693;43.884;20.340;2023-09-30T01:35:13;409.70;2355.20
54796;DHT22;40693;43.884;20.340;2023-09-30T01:37:39;409.70;2355.20
54796;DHT22;40693;43.884;20.340;2023-09-30T01:40:06;409.70;2355.20
54796;DHT22;40693;43.884;20.340;2023-09-30T01:42:37;409.60;2355.20
54796;DHT22;40693;43.884;20.340;2023-09-30T01:45:03;384.90;2329.60
54796;DHT22;40693;43.884;20.340;2023-09-30T01:47:29;409.60;2355.20
54796;DHT22;40693;43.884;20.340;2023-09-30T01:49:55;409.60;2355.20
54796;DHT22;40693;43.884;20.340;2023-09-30T01:52:21;409.60;2355.20
54796;DHT22;40693;43.884;20.340;2023-09-30T01:54:46;409.60;2355.20
54796;DHT22;40693;43.884;20.340;2023-09-30T01:57:13;409.60;2355.20
54796;DHT22;40693;43.884;20.340;2023-09-30T01:59:39;409.60;2355.20
54796;DHT22;40693;43.884;20.340;2023-09-30T02:02:04;409.60;2355.20
54796;DHT22;40693;43.884;20.340;2023-09-30T02:04:30;384.90;2329.60
54796;DHT22;40693;43.884;20.340;2023-09-30T02:06:56;384.90;2329.60
54796;DHT22;40693;43.884;20.340;2023-09-30T02:09:22;409.70;2355.20
54796;DHT22;40693;43.884;20.340;2023-09-30T02:11:47;409.60;2355.20
54796;DHT22;40693;43.884;20.340;2023-09-30T02:14:14;409.60;2355.20
54796;DHT22;40693;43.884;20.340;2023-09-30T02:16:39;384.90;2329.60
54796;DHT22;40693;43.884;20.340;2023-09-30T02:19:05;384.80;2329.60
54796;DHT22;40693;43.884;20.340;2023-09-30T02:21:32;384.70;2329.60
54796;DHT22;40693;43.884;20.340;2023-09-30T02:23:57;384.60;2329.60
54796;DHT22;40693;43.884;20.340;2023-09-30T02:26:23;384.50;2329.60
54796;DHT22;40693;43.884;20.340;2023-09-30T02:28:51;384.50;2329.60
54796;DHT22;40693;43.884;20.340;2023-09-30T02:31:18;384.50;2329.60
54796;DHT22;40693;43.884;20.340;2023-09-30T02:33:45;384.60;2329.60
54796;DHT22;40693;43.884;20.340;2023-09-30T02:36:10;384.60;2329.60
54796;DHT22;40693;43.884;20.340;2023-09-30T02:38:37;384.70;2329.60
54796;DHT22;40693;43.884;20.340;2023-09-30T02:41:03;384.70;2329.60
54796;DHT22;40693;43.884;20.340;2023-09-30T02:43:29;384.70;2329.60
54796;DHT22;40693;43.884;20.340;2023-09-30T02:45:55;384.70;2329.60
54796;DHT22;40693;43.884;20.340;2023-09-30T02:48:21;384.70;2329.60
54796;DHT22;40693;43.884;20.340;2023-09-30T02:50:46;384.80;2329.60
54796;DHT22;40693;43.884;20.340;2023-09-30T02:53:13;384.80;2329.60
54796;DHT22;40693;43.884;20.340;2023-09-30T02:55:39;384.80;2329.60
54796;DHT22;40693;43.884;20.340;2023-09-30T02:58:06;384.80;2329.60
54796;DHT22;40693;43.884;20.340;2023-09-30T03:00:33;384.80;2329.60
54796;DHT22;40693;43.884;20.340;2023-09-30T03:03:00;384.80;2329.60
54796;DHT22;40693;43.884;20.340;2023-09-30T03:05:27;384.80;2329.60
54796;DHT22;40693;43.884;20.340;2023-09-30T03:07:56;384.80;2329.60
54796;DHT22;40693;43.884;20.340;2023-09-30T03:10:22;384.80;2329.60
54796;DHT22;40693;43.884;20.340;2023-09-30T03:12:52;384.80;2329.60
54796;DHT22;40693;43.884;20.340;2023-09-30T03:15:18;384.90;2329.60
54796;DHT22;40693;43.884;20.340;2023-09-30T03:17:44;384.90;2329.60
54796;DHT22;40693;43.884;20.340;2023-09-30T03:20:10;384.90;2329.60
54796;DHT22;40693;43.884;20.340;2023-09-30T03:22:41;384.90;2329.60
54796;DHT22;40693;43.884;20.340;2023-09-30T03:25:11;384.90;2329.60
54796;DHT22;40693;43.884;20.340;2023-09-30T03:27:37;384.90;2329.60
54796;DHT22;40693;43.884;20.340;2023-09-30T03:30:07;384.90;2329.60
54796;DHT22;40693;43.884;20.340;2023-09-30T03:32:34;409.60;2355.20
54796;DHT22;40693;43.884;20.340;2023-09-30T03:35:02;409.60;2355.20
54796;DHT22;40693;43.884;20.340;2023-09-30T03:37:28;409.60;2355.20
54796;DHT22;40693;43.884;20.340;2023-09-30T03:39:57;409.60;2355.20
54796;DHT22;40693;43.884;20.340;2023-09-30T03:42:23;384.90;2329.60
54796;DHT22;40693;43.884;20.340;2023-09-30T03:44:49;384.90;2329.60
54796;DHT22;40693;43.884;20.340;2023-09-30T03:47:16;409.70;2355.20
54796;DHT22;40693;43.884;20.340;2023-09-30T03:49:42;384.90;2329.60
54796;DHT22;40693;43.884;20.340;2023-09-30T03:52:11;384.90;2329.60
54796;DHT22;40693;43.884;20.340;2023-09-30T03:54:37;384.90;2329.60
54796;DHT22;40693;43.884;20.340;2023-09-30T03:57:03;384.90;2329.60
54796;DHT22;40693;43.884;20.340;2023-09-30T03:59:29;384.90;2329.60
54796;DHT22;40693;43.884;20.340;2023-09-30T04:01:56;384.90;2329.60
54796;DHT22;40693;43.884;20.340;2023-09-30T04:04:23;384.90;2329.60
54796;DHT22;40693;43.884;20.340;2023-09-30T04:06:49;384.90;2329.60
54796;DHT22;40693;43.884;20.340;2023-09-30T04:09:17;384.90;2329.60
54796;DHT22;40693;43.884;20.340;2023-09-30T04:11:43;384.80;2329.60
54796;DHT22;40693;43.884;20.340;2023-09-30T04:14:09;384.80;2329.60
54796;DHT22;40693;43.884;20.340;2023-09-30T04:16:35;384.80;2329.60
54796;DHT22;40693;43.884;20.340;2023-09-30T04:19:03;384.80;2329.60
54796;DHT22;40693;43.884;20.340;2023-09-30T04:21:29;384.80;2329.60
54796;DHT22;40693;43.884;20.340;2023-09-30T04:23:57;384.70;2329.60
54796;DHT22;40693;43.884;20.340;2023-09-30T04:26:23;384.70;2329.60
54796;DHT22;40693;43.884;20.340;2023-09-30T04:28:50;384.60;2329.60
54796;DHT22;40693;43.884;20.340;2023-09-30T04:31:17;384.50;2329.60
54796;DHT22;40693;43.884;20.340;2023-09-30T04:33:43;384.50;2329.60
54796;DHT22;40693;43.884;20.340;2023-09-30T04:36:09;384.50;2329.60
54796;DHT22;40693;43.884;20.340;2023-09-30T04:38:36;384.50;2329.60
54796;DHT22;40693;43.884;20.340;2023-09-30T04:41:05;384.40;2329.60
54796;DHT22;40693;43.884;20.340;2023-09-30T04:43:33;384.30;2329.60
54796;DHT22;40693;43.884;20.340;2023-09-30T04:45:59;384.20;2329.60
54796;DHT22;40693;43.884;20.340;2023-09-30T04:48:24;384.10;2329.60
54796;DHT22;40693;43.884;20.340;2023-09-30T04:50:50;384.10;2329.60
54796;DHT22;40693;43.884;20.340;2023-09-30T04:53:20;384.00;2329.60
54796;DHT22;40693;43.884;20.340;2023-09-30T04:55:48;384.00;2329.60
54796;DHT22;40693;43.884;20.340;2023-09-30T04:58:17;384.00;2329.60
54796;DHT22;40693;43.884;20.340;2023-09-30T05:00:43;359.30;2329.60
54796;DHT22;40693;43.884;20.340;2023-09-30T05:03:09;359.30;2329.60
54796;DHT22;40693;43.884;20.340;2023-09-30T05:05:34;384.00;2329.60
54796;DHT22;40693;43.884;20.340;2023-09-30T05:08:01;384.00;2329.60
54796;DHT22;40693;43.884;20.340;2023-09-30T05:10:27;384.10;2329.60
54796;DHT22;40693;43.884;20.340;2023-09-30T05:12:53;384.10;2329.60
54796;DHT22;40693;43.884;20.340;2023-09-30T05:15:21;384.20;2329.60
54796;DHT22;40693;43.884;20.340;2023-09-30T05:17:47;384.20;2329.60
54796;DHT22;40693;43.884;20.340;2023-09-30T05:20:14;384.20;2329.60
54796;DHT22;40693;43.884;20.340;2023-09-30T05:22:43;384.30;2329.60
54796;DHT22;40693;43.884;20.340;2023-09-30T05:25:12;384.70;2329.60
54796;DHT22;40693;43.884;20.340;2023-09-30T05:27:37;384.30;2329.60
54796;DHT22;40693;43.884;20.340;2023-09-30T05:30:05;384.30;2329.60
54796;DHT22;40693;43.884;20.340;2023-09-30T05:32:32;384.30;2329.60
54796;DHT22;40693;43.884;20.340;2023-09-30T05:34:58;384.20;2329.60
54796;DHT22;40693;43.884;20.340;2023-09-30T05:37:24;384.20;2329.60
54796;DHT22;40693;43.884;20.340;2023-09-30T05:39:51;384.20;2329.60
54796;DHT22;40693;43.884;20.340;2023-09-30T05:42:17;384.20;2329.60
54796;DHT22;40693;43.884;20.340;2023-09-30T05:44:44;384.10;2329.60
54796;DHT22;40693;43.884;20.340;2023-09-30T05:47:11;384.10;2329.60
54796;DHT22;40693;43.884;20.340;2023-09-30T05:49:37;384.10;2329.60
54796;DHT22;40693;43.884;20.340;2023-09-30T05:52:03;384.10;2329.60
54796;DHT22;40693;43.884;20.340;2023-09-30T05:54:29;384.10;2329.60
54796;DHT22;40693;43.884;20.340;2023-09-30T05:56:55;384.20;2329.60
54796;DHT22;40693;43.884;20.340;2023-09-30T05:59:22;384.30;2329.60
54796;DHT22;40693;43.884;20.340;2023-09-30T06:01:50;384.30;2329.60
54796;DHT22;40693;43.884;20.340;2023-09-30T06:04:16;384.40;2329.60
54796;DHT22;40693;43.884;20.340;2023-09-30T06:06:42;384.50;2329.60
54796;DHT22;40693;43.884;20.340;2023-09-30T06:09:08;384.60;2329.60
54796;DHT22;40693;43.884;20.340;2023-09-30T06:11:34;384.80;2329.60
54796;DHT22;40693;43.884;20.340;2023-09-30T06:14:01;384.80;2329.60
54796;DHT22;40693;43.884;20.340;2023-09-30T06:16:28;384.90;2329.60
54796;DHT22;40693;43.884;20.340;2023-09-30T06:18:54;409.70;2355.20
54796;DHT22;40693;43.884;20.340;2023-09-30T06:21:25;409.80;2355.20
54796;DHT22;40693;43.884;20.340;2023-09-30T06:23:54;409.90;2355.20
54796;DHT22;40693;43.884;20.340;2023-09-30T06:26:21;410.00;2355.20
54796;DHT22;40693;43.884;20.340;2023-09-30T06:28:47;410.10;2355.20
54796;DHT22;40693;43.884;20.340;2023-09-30T06:31:13;410.20;2355.20
54796;DHT22;40693;43.884;20.340;2023-09-30T06:33:40;410.30;2355.20
54796;DHT22;40693;43.884;20.340;2023-09-30T06:36:11;410.40;2355.20
54796;DHT22;40693;43.884;20.340;2023-09-30T06:38:39;410.50;2355.20
54796;DHT22;40693;43.884;20.340;2023-09-30T06:41:05;435.30;2355.20
54796;DHT22;40693;43.884;20.340;2023-09-30T06:43:31;435.40;2355.20
54796;DHT22;40693;43.884;20.340;2023-09-30T06:45:58;435.50;2355.20
54796;DHT22;40693;43.884;20.340;2023-09-30T06:48:24;435.60;2355.20
54796;DHT22;40693;43.884;20.340;2023-09-30T06:50:50;435.80;2355.20
54796;DHT22;40693;43.884;20.340;2023-09-30T06:53:18;435.90;2355.20
54796;DHT22;40693;43.884;20.340;2023-09-30T06:55:45;436.10;2355.20
54796;DHT22;40693;43.884;20.340;2023-09-30T06:58:11;460.90;2380.80
54796;DHT22;40693;43.884;20.340;2023-09-30T07:00:38;461.10;2380.80
54796;DHT22;40693;43.884;20.340;2023-09-30T07:03:04;461.20;2380.80
54796;DHT22;40693;43.884;20.340;2023-09-30T07:05:30;461.30;2380.80
54796;DHT22;40693;43.884;20.340;2023-09-30T07:07:56;461.50;2380.80
54796;DHT22;40693;43.884;20.340;2023-09-30T07:10:22;461.70;2380.80
54796;DHT22;40693;43.884;20.340;2023-09-30T07:12:47;486.50;2380.80
54796;DHT22;40693;43.884;20.340;2023-09-30T07:15:13;486.60;2380.80
54796;DHT22;40693;43.884;20.340;2023-09-30T07:17:39;486.80;2380.80
54796;DHT22;40693;43.884;20.340;2023-09-30T07:20:06;487.00;2380.80
54796;DHT22;40693;43.884;20.340;2023-09-30T07:22:35;487.10;2380.80
54796;DHT22;40693;43.884;20.340;2023-09-30T07:25:01;487.20;2380.80
54796;DHT22;40693;43.884;20.340;2023-09-30T07:27:27;487.30;2380.80
54796;DHT22;40693;43.884;20.340;2023-09-30T07:29:53;512.10;2380.80
54796;DHT22;40693;43.884;20.340;2023-09-30T07:32:19;512.20;2380.80
54796;DHT22;40693;43.884;20.340;2023-09-30T07:34:48;512.40;2380.80
54796;DHT22;40693;43.884;20.340;2023-09-30T07:37:13;512.40;2380.80
54796;DHT22;40693;43.884;20.340;2023-09-30T07:39:40;512.60;2380.80
54796;DHT22;40693;43.884;20.340;2023-09-30T07:42:09;512.80;2380.80
54796;DHT22;40693;43.884;20.340;2023-09-30T07:44:35;512.80;2380.80
54796;DHT22;40693;43.884;20.340;2023-09-30T07:47:03;512.90;2380.80
54796;DHT22;40693;43.884;20.340;2023-09-30T07:49:29;512.90;2380.80
54796;DHT22;40693;43.884;20.340;2023-09-30T07:51:55;537.80;2406.40
54796;DHT22;40693;43.884;20.340;2023-09-30T07:54:21;538.00;2406.40
54796;DHT22;40693;43.884;20.340;2023-09-30T07:56:47;538.00;2406.40
54796;DHT22;40693;43.884;20.340;2023-09-30T07:59:12;538.10;2406.40
54796;DHT22;40693;43.884;20.340;2023-09-30T08:01:39;538.20;2406.40
54796;DHT22;40693;43.884;20.340;2023-09-30T08:04:06;538.30;2406.40
54796;DHT22;40693;43.884;20.340;2023-09-30T08:06:32;538.50;2406.40
54796;DHT22;40693;43.884;20.340;2023-09-30T08:08:57;563.20;2432.00
54796;DHT22;40693;43.884;20.340;2023-09-30T08:11:23;563.30;2432.00
54796;DHT22;40693;43.884;20.340;2023-09-30T08:13:55;563.60;2432.00
54796;DHT22;40693;43.884;20.340;2023-09-30T08:16:21;563.60;2432.00
54796;DHT22;40693;43.884;20.340;2023-09-30T08:18:47;563.80;2432.00
54796;DHT22;40693;43.884;20.340;2023-09-30T08:21:12;564.00;2432.00
54796;DHT22;40693;43.884;20.340;2023-09-30T08:23:38;564.10;2304.00
54796;DHT22;40693;43.884;20.340;2023-09-30T08:26:05;588.90;2304.00
54796;DHT22;40693;43.884;20.340;2023-09-30T08:28:31;589.10;2278.40
54796;DHT22;40693;43.884;20.340;2023-09-30T08:31:05;589.20;2278.40
54796;DHT22;40693;43.884;20.340;2023-09-30T08:33:31;589.40;2252.80
54796;DHT22;40693;43.884;20.340;2023-09-30T08:36:03;589.60;2227.20
54796;DHT22;40693;43.884;20.340;2023-09-30T08:38:36;614.40;2176.00
54796;DHT22;40693;43.884;20.340;2023-09-30T08:41:02;614.50;2073.60
54796;DHT22;40693;43.884;20.340;2023-09-30T08:43:28;614.70;2124.80
54796;DHT22;40693;43.884;20.340;2023-09-30T08:45:56;614.80;2048.00
54796;DHT22;40693;43.884;20.340;2023-09-30T08:48:29;614.90;1971.20
54796;DHT22;40693;43.884;20.340;2023-09-30T08:50:56;615.00;1920.00
54796;DHT22;40693;43.884;20.340;2023-09-30T08:53:24;615.20;1894.40
54796;DHT22;40693;43.884;20.340;2023-09-30T08:55:54;615.20;1894.40
54796;DHT22;40693;43.884;20.340;2023-09-30T08:58:23;640.00;1894.40
54796;DHT22;40693;43.884;20.340;2023-09-30T09:00:50;640.20;1894.40
54796;DHT22;40693;43.884;20.340;2023-09-30T09:03:18;640.40;1868.80
54796;DHT22;40693;43.884;20.340;2023-09-30T09:05:44;640.50;1792.00
54796;DHT22;40693;43.884;20.340;2023-09-30T09:08:10;640.60;1792.00
54796;DHT22;40693;43.884;20.340;2023-09-30T09:10:47;640.70;1792.00
54796;DHT22;40693;43.884;20.340;2023-09-30T09:13:18;640.90;1843.20
54796;DHT22;40693;43.884;20.340;2023-09-30T09:15:44;665.70;1894.40
54796;DHT22;40693;43.884;20.340;2023-09-30T09:18:10;665.80;1920.00
54796;DHT22;40693;43.884;20.340;2023-09-30T09:20:38;666.10;1920.00
54796;DHT22;40693;43.884;20.340;2023-09-30T09:23:06;666.20;1894.40
54796;DHT22;40693;43.884;20.340;2023-09-30T09:25:38;666.40;1894.40
54796;DHT22;40693;43.884;20.340;2023-09-30T09:28:04;691.20;1715.20
54796;DHT22;40693;43.884;20.340;2023-09-30T09:30:30;691.30;1689.60
54796;DHT22;40693;43.884;20.340;2023-09-30T09:33:04;691.40;1689.60
54796;DHT22;40693;43.884;20.340;2023-09-30T09:35:33;691.50;1689.60
54796;DHT22;40693;43.884;20.340;2023-09-30T09:38:03;691.70;1715.20
54796;DHT22;40693;43.884;20.340;2023-09-30T09:40:34;691.70;1689.60
54796;DHT22;40693;43.884;20.340;2023-09-30T09:43:01;691.70;1689.60
54796;DHT22;40693;43.884;20.340;2023-09-30T09:45:32;691.80;1664.00
54796;DHT22;40693;43.884;20.340;2023-09-30T09:47:59;691.80;1664.00
54796;DHT22;40693;43.884;20.340;2023-09-30T09:50:26;692.10;1664.00
54796;DHT22;40693;43.884;20.340;2023-09-30T09:52:52;716.80;1689.60
54796;DHT22;40693;43.884;20.340;2023-09-30T09:55:22;716.80;1664.00
54796;DHT22;40693;43.884;20.340;2023-09-30T09:57:49;716.80;1638.40
54796;DHT22;40693;43.884;20.340;2023-09-30T10:00:19;716.80;1638.40
54796;DHT22;40693;43.884;20.340;2023-09-30T10:02:46;717.00;1638.40
54796;DHT22;40693;43.884;20.340;2023-09-30T10:05:13;717.20;1612.80
54796;DHT22;40693;43.884;20.340;2023-09-30T10:08:01;717.30;1664.00
54796;DHT22;40693;43.884;20.340;2023-09-30T10:10:29;717.50;1664.00
54796;DHT22;40693;43.884;20.340;2023-09-30T10:12:55;717.70;1638.40
54796;DHT22;40693;43.884;20.340;2023-09-30T10:20:40;742.90;1612.80
54796;DHT22;40693;43.884;20.340;2023-09-30T10:25:52;743.20;1612.80
54796;DHT22;40693;43.884;20.340;2023-09-30T10:28:40;743.30;1510.40
54796;DHT22;40693;43.884;20.340;2023-09-30T10:36:34;768.30;1510.40
54796;DHT22;40693;43.884;20.340;2023-09-30T10:39:02;768.30;1433.60
54796;DHT22;40693;43.884;20.340;2023-09-30T10:46:58;768.50;1382.40
54796;DHT22;40693;43.884;20.340;2023-09-30T10:51:55;768.30;1408.00
54796;DHT22;40693;43.884;20.340;2023-09-30T10:54:29;768.20;1408.00
54796;DHT22;40693;43.884;20.340;2023-09-30T10:56:56;768.40;1408.00
54796;DHT22;40693;43.884;20.340;2023-09-30T10:59:26;768.40;1382.40
54796;DHT22;40693;43.884;20.340;2023-09-30T11:01:53;768.50;1408.00
54796;DHT22;40693;43.884;20.340;2023-09-30T11:04:19;768.50;1356.80
54796;DHT22;40693;43.884;20.340;2023-09-30T11:06:46;768.60;1382.40
54796;DHT22;40693;43.884;20.340;2023-09-30T11:09:22;768.70;1305.60
54796;DHT22;40693;43.884;20.340;2023-09-30T11:11:49;768.90;1305.60
54796;DHT22;40693;43.884;20.340;2023-09-30T11:14:29;793.70;1356.80
54796;DHT22;40693;43.884;20.340;2023-09-30T11:16:57;793.60;1254.40
54796;DHT22;40693;43.884;20.340;2023-09-30T11:19:23;793.70;1254.40
54796;DHT22;40693;43.884;20.340;2023-09-30T11:21:51;793.60;1254.40
54796;DHT22;40693;43.884;20.340;2023-09-30T11:24:17;793.70;1228.80
54796;DHT22;40693;43.884;20.340;2023-09-30T11:26:46;793.80;1228.80
54796;DHT22;40693;43.884;20.340;2023-09-30T11:29:15;793.70;1228.80
54796;DHT22;40693;43.884;20.340;2023-09-30T11:31:44;768.90;1177.60
54796;DHT22;40693;43.884;20.340;2023-09-30T11:34:10;768.90;1203.20
54796;DHT22;40693;43.884;20.340;2023-09-30T11:36:47;768.80;1228.80
54796;DHT22;40693;43.884;20.340;2023-09-30T11:39:30;768.40;1228.80
54796;DHT22;40693;43.884;20.340;2023-09-30T11:41:57;768.40;1254.40
54796;DHT22;40693;43.884;20.340;2023-09-30T11:44:25;768.40;1203.20
54796;DHT22;40693;43.884;20.340;2023-09-30T11:46:53;768.50;1203.20
54796;DHT22;40693;43.884;20.340;2023-09-30T11:49:39;768.80;1203.20
54796;DHT22;40693;43.884;20.340;2023-09-30T11:52:13;793.60;1177.60
54796;DHT22;40693;43.884;20.340;2023-09-30T11:54:43;793.60;1177.60
54796;DHT22;40693;43.884;20.340;2023-09-30T11:57:17;793.80;1228.80
54796;DHT22;40693;43.884;20.340;2023-09-30T11:59:47;794.00;1203.20
54796;DHT22;40693;43.884;20.340;2023-09-30T12:02:16;794.00;1177.60
54796;DHT22;40693;43.884;20.340;2023-09-30T12:04:45;794.00;1177.60
54796;DHT22;40693;43.884;20.340;2023-09-30T12:07:12;794.20;1177.60
54796;DHT22;40693;43.884;20.340;2023-09-30T12:09:38;794.40;1177.60
54796;DHT22;40693;43.884;20.340;2023-09-30T12:12:05;794.40;1203.20
54796;DHT22;40693;43.884;20.340;2023-09-30T12:14:35;794.20;1203.20
54796;DHT22;40693;43.884;20.340;2023-09-30T12:17:00;794.10;1228.80
54796;DHT22;40693;43.884;20.340;2023-09-30T12:19:26;794.20;1228.80
54796;DHT22;40693;43.884;20.340;2023-09-30T12:21:52;794.50;1203.20
54796;DHT22;40693;43.884;20.340;2023-09-30T12:24:18;819.20;1203.20
54796;DHT22;40693;43.884;20.340;2023-09-30T12:26:50;794.50;1203.20
54796;DHT22;40693;43.884;20.340;2023-09-30T12:29:18;794.50;1203.20
54796;DHT22;40693;43.884;20.340;2023-09-30T12:31:48;819.30;1152.00
54796;DHT22;40693;43.884;20.340;2023-09-30T12:34:14;819.60;1177.60
54796;DHT22;40693;43.884;20.340;2023-09-30T12:36:41;819.30;1152.00
54796;DHT22;40693;43.884;20.340;2023-09-30T12:39:07;819.50;1177.60
54796;DHT22;40693;43.884;20.340;2023-09-30T12:41:40;819.30;1203.20
54796;DHT22;40693;43.884;20.340;2023-09-30T12:44:10;819.60;1203.20
54796;DHT22;40693;43.884;20.340;2023-09-30T12:46:37;819.80;1203.20
54796;DHT22;40693;43.884;20.340;2023-09-30T12:49:05;819.80;1177.60
54796;DHT22;40693;43.884;20.340;2023-09-30T12:51:31;819.80;1203.20
54796;DHT22;40693;43.884;20.340;2023-09-30T12:53:58;819.80;1152.00
54796;DHT22;40693;43.884;20.340;2023-09-30T12:56:24;820.00;1177.60
54796;DHT22;40693;43.884;20.340;2023-09-30T12:58:50;819.80;1152.00
54796;DHT22;40693;43.884;20.340;2023-09-30T13:01:16;819.70;1177.60
54796;DHT22;40693;43.884;20.340;2023-09-30T13:03:44;819.70;1203.20
54796;DHT22;40693;43.884;20.340;2023-09-30T13:06:10;819.70;1203.20
54796;DHT22;40693;43.884;20.340;2023-09-30T13:08:36;819.60;1203.20
54796;DHT22;40693;43.884;20.340;2023-09-30T13:11:02;819.50;1228.80
54796;DHT22;40693;43.884;20.340;2023-09-30T13:13:32;819.30;1177.60
54796;DHT22;40693;43.884;20.340;2023-09-30T13:16:02;819.20;1203.20
54796;DHT22;40693;43.884;20.340;2023-09-30T13:18:31;794.30;1203.20
54796;DHT22;40693;43.884;20.340;2023-09-30T13:20:58;794.30;1228.80
54796;DHT22;40693;43.884;20.340;2023-09-30T13:23:23;794.20;1203.20
54796;DHT22;40693;43.884;20.340;2023-09-30T13:25:49;793.90;1203.20
54796;DHT22;40693;43.884;20.340;2023-09-30T13:28:15;793.70;1228.80
54796;DHT22;40693;43.884;20.340;2023-09-30T13:30:42;793.70;1228.80
54796;DHT22;40693;43.884;20.340;2023-09-30T13:33:07;793.70;1228.80
54796;DHT22;40693;43.884;20.340;2023-09-30T13:35:33;793.70;1254.40
54796;DHT22;40693;43.884;20.340;2023-09-30T13:38:01;768.90;1228.80
54796;DHT22;40693;43.884;20.340;2023-09-30T13:40:29;768.70;1228.80
54796;DHT22;40693;43.884;20.340;2023-09-30T13:42:54;768.90;1228.80
54796;DHT22;40693;43.884;20.340;2023-09-30T13:45:21;793.60;1254.40
54796;DHT22;40693;43.884;20.340;2023-09-30T13:47:47;793.70;1254.40
54796;DHT22;40693;43.884;20.340;2023-09-30T13:50:13;793.80;1254.40
54796;DHT22;40693;43.884;20.340;2023-09-30T13:52:38;793.90;1228.80
54796;DHT22;40693;43.884;20.340;2023-09-30T13:55:04;793.80;1228.80
54796;DHT22;40693;43.884;20.340;2023-09-30T13:57:30;793.70;1254.40
54796;DHT22;40693;43.884;20.340;2023-09-30T13:59:56;793.80;1254.40
54796;DHT22;40693;43.884;20.340;2023-09-30T14:02:22;794.00;1228.80
54796;DHT22;40693;43.884;20.340;2023-09-30T14:04:49;794.00;1228.80
54796;DHT22;40693;43.884;20.340;2023-09-30T14:07:14;794.00;1254.40
54796;DHT22;40693;43.884;20.340;2023-09-30T14:09:43;793.90;1228.80
54796;DHT22;40693;43.884;20.340;2023-09-30T14:12:09;794.20;1280.00
54796;DHT22;40693;43.884;20.340;2023-09-30T14:14:35;793.80;1228.80
54796;DHT22;40693;43.884;20.340;2023-09-30T14:17:01;793.90;1280.00
54796;DHT22;40693;43.884;20.340;2023-09-30T14:19:33;794.00;1254.40
54796;DHT22;40693;43.884;20.340;2023-09-30T14:21:59;794.00;1228.80
54796;DHT22;40693;43.884;20.340;2023-09-30T14:24:25;794.10;1254.40
54796;DHT22;40693;43.884;20.340;2023-09-30T14:26:51;794.20;1254.40
54796;DHT22;40693;43.884;20.340;2023-09-30T14:29:17;794.20;1228.80
54796;DHT22;40693;43.884;20.340;2023-09-30T14:31:42;794.20;1254.40
54796;DHT22;40693;43.884;20.340;2023-09-30T14:34:08;794.30;1254.40
54796;DHT22;40693;43.884;20.340;2023-09-30T14:36:34;794.40;1228.80
54796;DHT22;40693;43.884;20.340;2023-09-30T14:39:00;794.20;1228.80
54796;DHT22;40693;43.884;20.340;2023-09-30T14:41:26;794.20;1228.80
54796;DHT22;40693;43.884;20.340;2023-09-30T14:43:51;794.40;1228.80
54796;DHT22;40693;43.884;20.340;2023-09-30T14:46:17;794.20;1228.80
54796;DHT22;40693;43.884;20.340;2023-09-30T14:48:43;794.20;1203.20
54796;DHT22;40693;43.884;20.340;2023-09-30T14:51:09;794.20;1228.80
54796;DHT22;40693;43.884;20.340;2023-09-30T14:53:35;794.30;1228.80
54796;DHT22;40693;43.884;20.340;2023-09-30T14:56:01;794.20;1254.40
54796;DHT22;40693;43.884;20.340;2023-09-30T14:58:26;794.20;1228.80